sensor_id;sensor_type;location;lat;lon;timestamp;temperature;humidity
14475;DHT22;7323;50.848;4.334;2024-03-02T00:00:22;7.50;99.90
14475;DHT22;7323;50.848;4.334;2024-03-02T00:02:49;7.70;99.90
14475;DHT22;7323;50.848;4.334;2024-03-02T00:05:20;7.70;99.90
14475;DHT22;7323;50.848;4.334;2024-03-02T00:07:54;7.70;99.90
14475;DHT22;7323;50.848;4.334;2024-03-02T00:10:56;7.70;99.90
14475;DHT22;7323;50.848;4.334;2024-03-02T00:13:22;7.70;99.90
14475;DHT22;7323;50.848;4.334;2024-03-02T00:15:54;7.60;99.90
14475;DHT22;7323;50.848;4.334;2024-03-02T00:18:31;7.60;99.90
14475;DHT22;7323;50.848;4.334;2024-03-02T00:20:58;7.60;99.90
14475;DHT22;7323;50.848;4.334;2024-03-02T00:23:24;7.60;99.90
14475;DHT22;7323;50.848;4.334;2024-03-02T00:25:54;7.60;99.90
14475;DHT22;7323;50.848;4.334;2024-03-02T00:28:28;7.70;99.90
14475;DHT22;7323;50.848;4.334;2024-03-02T00:33:23;7.70;99.90
14475;DHT22;7323;50.848;4.334;2024-03-02T00:35:49;7.70;99.90
14475;DHT22;7323;50.848;4.334;2024-03-02T00:38:15;7.60;99.90
14475;DHT22;7323;50.848;4.334;2024-03-02T00:40:42;7.60;99.90
14475;DHT22;7323;50.848;4.334;2024-03-02T00:45:47;7.80;99.90
14475;DHT22;7323;50.848;4.334;2024-03-02T00:48:15;7.70;99.90
14475;DHT22;7323;50.848;4.334;2024-03-02T00:50:42;7.90;99.90
14475;DHT22;7323;50.848;4.334;2024-03-02T00:53:11;7.70;99.90
14475;DHT22;7323;50.848;4.334;2024-03-02T00:55:38;7.60;99.90
14475;DHT22;7323;50.848;4.334;2024-03-02T00:58:03;7.70;99.90
14475;DHT22;7323;50.848;4.334;2024-03-02T01:00:30;7.60;99.90
14475;DHT22;7323;50.848;4.334;2024-03-02T01:02:55;7.60;99.90
14475;DHT22;7323;50.848;4.334;2024-03-02T01:05:21;7.60;99.90
14475;DHT22;7323;50.848;4.334;2024-03-02T01:07:47;7.70;99.90
14475;DHT22;7323;50.848;4.334;2024-03-02T01:10:13;7.60;99.90
14475;DHT22;7323;50.848;4.334;2024-03-02T01:12:38;7.70;99.90
14475;DHT22;7323;50.848;4.334;2024-03-02T01:15:05;7.70;99.90
14475;DHT22;7323;50.848;4.334;2024-03-02T01:17:33;7.70;99.90
14475;DHT22;7323;50.848;4.334;2024-03-02T01:19:59;7.60;99.90
14475;DHT22;7323;50.848;4.334;2024-03-02T01:22:24;7.60;99.90
14475;DHT22;7323;50.848;4.334;2024-03-02T01:24:50;7.60;99.90
14475;DHT22;7323;50.848;4.334;2024-03-02T01:27:16;7.70;99.90
14475;DHT22;7323;50.848;4.334;2024-03-02T01:29:41;7.80;99.90
14475;DHT22;7323;50.848;4.334;2024-03-02T01:32:07;7.70;99.90
14475;DHT22;7323;50.848;4.334;2024-03-02T01:34:33;7.90;99.90
14475;DHT22;7323;50.848;4.334;2024-03-02T01:36:58;7.80;99.90
14475;DHT22;7323;50.848;4.334;2024-03-02T01:39:24;7.70;99.90
14475;DHT22;7323;50.848;4.334;2024-03-02T01:41:49;7.70;99.90
14475;DHT22;7323;50.848;4.334;2024-03-02T01:44:15;7.80;98.90
14475;DHT22;7323;50.848;4.334;2024-03-02T01:46:41;7.70;98.70
14475;DHT22;7323;50.848;4.334;2024-03-02T01:49:06;7.70;99.30
14475;DHT22;7323;50.848;4.334;2024-03-02T01:51:32;7.80;98.50
14475;DHT22;7323;50.848;4.334;2024-03-02T01:53:58;7.70;98.20
14475;DHT22;7323;50.848;4.334;2024-03-02T01:56:24;7.90;96.90
14475;DHT22;7323;50.848;4.334;2024-03-02T01:58:50;7.90;93.60
14475;DHT22;7323;50.848;4.334;2024-03-02T02:01:15;7.80;92.80
14475;DHT22;7323;50.848;4.334;2024-03-02T02:03:43;8.00;91.50
14475;DHT22;7323;50.848;4.334;2024-03-02T02:06:09;7.80;89.60
14475;DHT22;7323;50.848;4.334;2024-03-02T02:08:37;7.90;89.30
14475;DHT22;7323;50.848;4.334;2024-03-02T02:11:03;7.80;90.90
14475;DHT22;7323;50.848;4.334;2024-03-02T02:13:28;7.70;90.40
14475;DHT22;7323;50.848;4.334;2024-03-02T02:15:54;7.70;86.40
14475;DHT22;7323;50.848;4.334;2024-03-02T02:18:20;7.80;85.80
14475;DHT22;7323;50.848;4.334;2024-03-02T02:20:45;7.90;85.50
14475;DHT22;7323;50.848;4.334;2024-03-02T02:23:11;7.80;79.20
14475;DHT22;7323;50.848;4.334;2024-03-02T02:25:38;7.90;81.20
14475;DHT22;7323;50.848;4.334;2024-03-02T02:28:05;7.90;82.70
14475;DHT22;7323;50.848;4.334;2024-03-02T02:30:32;7.90;82.50
14475;DHT22;7323;50.848;4.334;2024-03-02T02:32:58;7.90;79.80
14475;DHT22;7323;50.848;4.334;2024-03-02T02:35:24;7.90;78.50
14475;DHT22;7323;50.848;4.334;2024-03-02T02:37:50;7.90;78.50
14475;DHT22;7323;50.848;4.334;2024-03-02T02:40:17;7.90;79.30
14475;DHT22;7323;50.848;4.334;2024-03-02T02:42:44;7.90;79.10
14475;DHT22;7323;50.848;4.334;2024-03-02T02:45:10;7.90;76.40
14475;DHT22;7323;50.848;4.334;2024-03-02T02:47:38;8.00;74.60
14475;DHT22;7323;50.848;4.334;2024-03-02T02:50:04;7.90;77.20
14475;DHT22;7323;50.848;4.334;2024-03-02T02:52:34;7.80;82.10
14475;DHT22;7323;50.848;4.334;2024-03-02T02:55:05;7.80;84.90
14475;DHT22;7323;50.848;4.334;2024-03-02T02:57:35;7.70;86.10
14475;DHT22;7323;50.848;4.334;2024-03-02T03:00:05;7.80;85.80
14475;DHT22;7323;50.848;4.334;2024-03-02T03:02:36;7.80;87.10
14475;DHT22;7323;50.848;4.334;2024-03-02T03:05:03;7.80;87.40
14475;DHT22;7323;50.848;4.334;2024-03-02T03:07:29;7.80;87.90
14475;DHT22;7323;50.848;4.334;2024-03-02T03:09:54;7.80;83.50
14475;DHT22;7323;50.848;4.334;2024-03-02T03:12:20;7.80;84.20
14475;DHT22;7323;50.848;4.334;2024-03-02T03:14:46;7.70;82.50
14475;DHT22;7323;50.848;4.334;2024-03-02T03:17:11;7.70;87.10
14475;DHT22;7323;50.848;4.334;2024-03-02T03:19:38;7.70;87.00
14475;DHT22;7323;50.848;4.334;2024-03-02T03:22:04;7.80;85.80
14475;DHT22;7323;50.848;4.334;2024-03-02T03:24:30;7.60;89.20
14475;DHT22;7323;50.848;4.334;2024-03-02T03:26:55;7.60;90.00
14475;DHT22;7323;50.848;4.334;2024-03-02T03:29:21;7.70;89.50
14475;DHT22;7323;50.848;4.334;2024-03-02T03:31:47;7.70;90.00
14475;DHT22;7323;50.848;4.334;2024-03-02T03:34:12;7.60;91.30
14475;DHT22;7323;50.848;4.334;2024-03-02T03:36:41;7.50;92.40
14475;DHT22;7323;50.848;4.334;2024-03-02T03:39:07;7.60;90.50
14475;DHT22;7323;50.848;4.334;2024-03-02T03:41:33;7.60;90.30
14475;DHT22;7323;50.848;4.334;2024-03-02T03:43:58;7.60;91.60
14475;DHT22;7323;50.848;4.334;2024-03-02T03:46:24;7.50;91.50
14475;DHT22;7323;50.848;4.334;2024-03-02T03:48:50;7.60;92.10
14475;DHT22;7323;50.848;4.334;2024-03-02T03:51:16;7.60;92.30
14475;DHT22;7323;50.848;4.334;2024-03-02T03:53:42;7.60;92.80
14475;DHT22;7323;50.848;4.334;2024-03-02T03:56:07;7.60;93.10
14475;DHT22;7323;50.848;4.334;2024-03-02T03:58:33;7.60;91.80
14475;DHT22;7323;50.848;4.334;2024-03-02T04:00:58;7.70;90.10
14475;DHT22;7323;50.848;4.334;2024-03-02T04:03:24;7.70;88.10
14475;DHT22;7323;50.848;4.334;2024-03-02T04:05:50;7.50;88.70
14475;DHT22;7323;50.848;4.334;2024-03-02T04:08:16;7.70;86.10
14475;DHT22;7323;50.848;4.334;2024-03-02T04:10:42;7.60;84.30
14475;DHT22;7323;50.848;4.334;2024-03-02T04:13:08;7.70;83.60
14475;DHT22;7323;50.848;4.334;2024-03-02T04:15:33;7.70;83.70
14475;DHT22;7323;50.848;4.334;2024-03-02T04:17:59;7.70;81.20
14475;DHT22;7323;50.848;4.334;2024-03-02T04:20:25;7.70;81.40
14475;DHT22;7323;50.848;4.334;2024-03-02T04:22:51;7.80;81.20
14475;DHT22;7323;50.848;4.334;2024-03-02T04:25:16;7.80;81.70
14475;DHT22;7323;50.848;4.334;2024-03-02T04:27:42;7.80;78.40
14475;DHT22;7323;50.848;4.334;2024-03-02T04:30:08;7.60;75.80
14475;DHT22;7323;50.848;4.334;2024-03-02T04:32:33;7.70;76.00
14475;DHT22;7323;50.848;4.334;2024-03-02T04:34:59;7.80;73.00
14475;DHT22;7323;50.848;4.334;2024-03-02T04:37:25;7.70;74.30
14475;DHT22;7323;50.848;4.334;2024-03-02T04:39:51;7.70;70.00
14475;DHT22;7323;50.848;4.334;2024-03-02T04:42:17;7.70;69.50
14475;DHT22;7323;50.848;4.334;2024-03-02T04:44:43;7.70;69.60
14475;DHT22;7323;50.848;4.334;2024-03-02T04:47:08;7.60;65.40
14475;DHT22;7323;50.848;4.334;2024-03-02T04:49:34;7.60;64.90
14475;DHT22;7323;50.848;4.334;2024-03-02T04:52:00;7.50;66.40
14475;DHT22;7323;50.848;4.334;2024-03-02T04:54:25;7.60;69.20
14475;DHT22;7323;50.848;4.334;2024-03-02T04:56:52;7.60;71.80
14475;DHT22;7323;50.848;4.334;2024-03-02T04:59:18;7.50;71.50
14475;DHT22;7323;50.848;4.334;2024-03-02T05:01:44;7.60;66.70
14475;DHT22;7323;50.848;4.334;2024-03-02T05:04:10;7.60;65.70
14475;DHT22;7323;50.848;4.334;2024-03-02T05:06:38;7.50;66.00
14475;DHT22;7323;50.848;4.334;2024-03-02T05:09:04;7.60;66.80
14475;DHT22;7323;50.848;4.334;2024-03-02T05:11:30;7.60;65.00
14475;DHT22;7323;50.848;4.334;2024-03-02T05:14:05;7.50;60.50
14475;DHT22;7323;50.848;4.334;2024-03-02T05:16:35;7.50;63.60
14475;DHT22;7323;50.848;4.334;2024-03-02T05:19:02;7.50;62.10
14475;DHT22;7323;50.848;4.334;2024-03-02T05:21:28;7.40;61.20
14475;DHT22;7323;50.848;4.334;2024-03-02T05:23:54;7.50;59.50
14475;DHT22;7323;50.848;4.334;2024-03-02T05:26:20;7.70;57.00
14475;DHT22;7323;50.848;4.334;2024-03-02T05:28:45;7.60;55.10
14475;DHT22;7323;50.848;4.334;2024-03-02T05:31:11;7.60;53.50
14475;DHT22;7323;50.848;4.334;2024-03-02T05:33:40;7.40;54.20
14475;DHT22;7323;50.848;4.334;2024-03-02T05:36:06;7.30;54.70
14475;DHT22;7323;50.848;4.334;2024-03-02T05:38:36;7.20;61.50
14475;DHT22;7323;50.848;4.334;2024-03-02T05:41:02;7.20;64.60
14475;DHT22;7323;50.848;4.334;2024-03-02T05:43:28;7.20;68.40
14475;DHT22;7323;50.848;4.334;2024-03-02T05:45:54;7.30;69.60
14475;DHT22;7323;50.848;4.334;2024-03-02T05:48:20;7.10;68.00
14475;DHT22;7323;50.848;4.334;2024-03-02T05:50:45;7.10;70.90
14475;DHT22;7323;50.848;4.334;2024-03-02T05:53:11;7.10;74.50
14475;DHT22;7323;50.848;4.334;2024-03-02T05:55:37;7.10;78.70
14475;DHT22;7323;50.848;4.334;2024-03-02T05:58:02;7.20;74.80
14475;DHT22;7323;50.848;4.334;2024-03-02T06:00:31;6.90;76.50
14475;DHT22;7323;50.848;4.334;2024-03-02T06:02:57;7.10;77.50
14475;DHT22;7323;50.848;4.334;2024-03-02T06:05:22;7.10;77.70
14475;DHT22;7323;50.848;4.334;2024-03-02T06:07:48;7.00;73.80
14475;DHT22;7323;50.848;4.334;2024-03-02T06:10:14;6.90;79.20
14475;DHT22;7323;50.848;4.334;2024-03-02T06:12:40;6.80;80.80
14475;DHT22;7323;50.848;4.334;2024-03-02T06:15:06;6.80;84.30
14475;DHT22;7323;50.848;4.334;2024-03-02T06:17:32;6.80;85.60
14475;DHT22;7323;50.848;4.334;2024-03-02T06:19:58;6.70;85.90
14475;DHT22;7323;50.848;4.334;2024-03-02T06:22:23;6.80;85.60
14475;DHT22;7323;50.848;4.334;2024-03-02T06:24:51;6.80;83.90
14475;DHT22;7323;50.848;4.334;2024-03-02T06:27:16;6.80;84.40
14475;DHT22;7323;50.848;4.334;2024-03-02T06:29:42;7.00;86.00
14475;DHT22;7323;50.848;4.334;2024-03-02T06:32:08;7.00;84.70
14475;DHT22;7323;50.848;4.334;2024-03-02T06:34:33;6.80;87.20
14475;DHT22;7323;50.848;4.334;2024-03-02T06:36:59;6.80;86.80
14475;DHT22;7323;50.848;4.334;2024-03-02T06:39:25;6.90;89.50
14475;DHT22;7323;50.848;4.334;2024-03-02T06:41:51;6.80;87.10
14475;DHT22;7323;50.848;4.334;2024-03-02T06:44:18;7.00;90.00
14475;DHT22;7323;50.848;4.334;2024-03-02T06:46:44;6.90;84.60
14475;DHT22;7323;50.848;4.334;2024-03-02T06:49:09;6.90;84.30
14475;DHT22;7323;50.848;4.334;2024-03-02T06:51:36;6.90;85.60
14475;DHT22;7323;50.848;4.334;2024-03-02T06:54:02;6.90;88.40
14475;DHT22;7323;50.848;4.334;2024-03-02T06:56:27;6.80;88.40
14475;DHT22;7323;50.848;4.334;2024-03-02T06:58:53;7.00;88.00
14475;DHT22;7323;50.848;4.334;2024-03-02T07:01:19;7.00;89.00
14475;DHT22;7323;50.848;4.334;2024-03-02T07:03:46;7.10;87.30
14475;DHT22;7323;50.848;4.334;2024-03-02T07:06:11;7.00;86.40
14475;DHT22;7323;50.848;4.334;2024-03-02T07:08:37;7.20;85.80
14475;DHT22;7323;50.848;4.334;2024-03-02T07:11:03;7.30;79.30
14475;DHT22;7323;50.848;4.334;2024-03-02T07:13:28;7.30;74.60
14475;DHT22;7323;50.848;4.334;2024-03-02T07:15:54;7.30;69.80
14475;DHT22;7323;50.848;4.334;2024-03-02T07:18:40;7.40;65.70
14475;DHT22;7323;50.848;4.334;2024-03-02T07:21:16;7.40;64.60
14475;DHT22;7323;50.848;4.334;2024-03-02T07:23:42;7.30;60.70
14475;DHT22;7323;50.848;4.334;2024-03-02T07:26:07;7.40;59.60
14475;DHT22;7323;50.848;4.334;2024-03-02T07:28:33;7.40;60.00
14475;DHT22;7323;50.848;4.334;2024-03-02T07:31:02;7.50;59.60
14475;DHT22;7323;50.848;4.334;2024-03-02T07:33:30;7.50;58.30
14475;DHT22;7323;50.848;4.334;2024-03-02T07:35:56;7.60;56.90
14475;DHT22;7323;50.848;4.334;2024-03-02T07:38:23;7.60;55.60
14475;DHT22;7323;50.848;4.334;2024-03-02T07:40:49;7.60;50.90
14475;DHT22;7323;50.848;4.334;2024-03-02T07:43:18;7.80;51.70
14475;DHT22;7323;50.848;4.334;2024-03-02T07:45:45;7.90;51.30
14475;DHT22;7323;50.848;4.334;2024-03-02T07:48:11;8.00;48.60
14475;DHT22;7323;50.848;4.334;2024-03-02T07:50:37;8.00;45.80
14475;DHT22;7323;50.848;4.334;2024-03-02T07:53:04;8.20;40.10
14475;DHT22;7323;50.848;4.334;2024-03-02T07:55:31;8.10;36.60
14475;DHT22;7323;50.848;4.334;2024-03-02T07:57:57;8.10;33.10
14475;DHT22;7323;50.848;4.334;2024-03-02T08:00:23;8.10;29.30
14475;DHT22;7323;50.848;4.334;2024-03-02T08:02:50;8.20;30.10
14475;DHT22;7323;50.848;4.334;2024-03-02T08:05:16;8.10;29.50
14475;DHT22;7323;50.848;4.334;2024-03-02T08:07:45;8.10;31.60
14475;DHT22;7323;50.848;4.334;2024-03-02T08:10:11;8.10;35.00
14475;DHT22;7323;50.848;4.334;2024-03-02T08:12:37;8.30;32.80
14475;DHT22;7323;50.848;4.334;2024-03-02T08:15:03;8.30;30.00
14475;DHT22;7323;50.848;4.334;2024-03-02T08:17:30;8.30;27.40
14475;DHT22;7323;50.848;4.334;2024-03-02T08:19:56;8.50;27.50
14475;DHT22;7323;50.848;4.334;2024-03-02T08:22:22;8.60;21.80
14475;DHT22;7323;50.848;4.334;2024-03-02T08:24:48;8.80;18.50
14475;DHT22;7323;50.848;4.334;2024-03-02T08:27:14;8.70;13.80
14475;DHT22;7323;50.848;4.334;2024-03-02T08:29:40;8.80;10.90
14475;DHT22;7323;50.848;4.334;2024-03-02T08:32:07;8.90;12.50
14475;DHT22;7323;50.848;4.334;2024-03-02T08:34:32;8.90;11.70
14475;DHT22;7323;50.848;4.334;2024-03-02T08:37:01;8.80;8.50
14475;DHT22;7323;50.848;4.334;2024-03-02T08:39:27;8.90;9.30
14475;DHT22;7323;50.848;4.334;2024-03-02T08:41:53;9.10;6.10
14475;DHT22;7323;50.848;4.334;2024-03-02T08:44:20;9.20;4.40
14475;DHT22;7323;50.848;4.334;2024-03-02T08:46:45;9.10;1.80
14475;DHT22;7323;50.848;4.334;2024-03-02T08:49:14;9.20;1.00
14475;DHT22;7323;50.848;4.334;2024-03-02T08:51:40;9.30;1.00
14475;DHT22;7323;50.848;4.334;2024-03-02T08:54:06;9.30;1.00
14475;DHT22;7323;50.848;4.334;2024-03-02T08:56:31;9.40;1.00
14475;DHT22;7323;50.848;4.334;2024-03-02T08:58:59;9.40;1.00
14475;DHT22;7323;50.848;4.334;2024-03-02T09:01:25;9.60;1.00
14475;DHT22;7323;50.848;4.334;2024-03-02T09:03:51;9.60;1.00
14475;DHT22;7323;50.848;4.334;2024-03-02T09:06:17;9.70;1.00
14475;DHT22;7323;50.848;4.334;2024-03-02T09:08:43;10.00;1.00
14475;DHT22;7323;50.848;4.334;2024-03-02T09:11:10;10.00;1.00
14475;DHT22;7323;50.848;4.334;2024-03-02T09:13:36;10.10;1.00
14475;DHT22;7323;50.848;4.334;2024-03-02T09:16:03;10.30;1.00
14475;DHT22;7323;50.848;4.334;2024-03-02T09:18:29;10.40;99.90
14475;DHT22;7323;50.848;4.334;2024-03-02T09:20:55;10.50;99.90
14475;DHT22;7323;50.848;4.334;2024-03-02T09:23:21;10.60;99.90
14475;DHT22;7323;50.848;4.334;2024-03-02T09:25:47;10.60;99.90
14475;DHT22;7323;50.848;4.334;2024-03-02T09:28:15;10.70;99.90
14475;DHT22;7323;50.848;4.334;2024-03-02T09:30:41;10.70;99.90
14475;DHT22;7323;50.848;4.334;2024-03-02T09:33:06;10.60;99.90
14475;DHT22;7323;50.848;4.334;2024-03-02T09:35:32;10.70;99.90
14475;DHT22;7323;50.848;4.334;2024-03-02T09:37:58;10.70;99.90
14475;DHT22;7323;50.848;4.334;2024-03-02T09:40:23;10.70;99.90
14475;DHT22;7323;50.848;4.334;2024-03-02T09:42:49;10.80;99.90
14475;DHT22;7323;50.848;4.334;2024-03-02T09:45:23;10.90;99.90
14475;DHT22;7323;50.848;4.334;2024-03-02T09:47:49;10.80;99.90
14475;DHT22;7323;50.848;4.334;2024-03-02T09:50:15;10.70;99.90
14475;DHT22;7323;50.848;4.334;2024-03-02T09:52:42;10.70;99.90
14475;DHT22;7323;50.848;4.334;2024-03-02T09:55:09;10.70;99.90
14475;DHT22;7323;50.848;4.334;2024-03-02T09:57:35;10.70;1.00
14475;DHT22;7323;50.848;4.334;2024-03-02T10:00:00;10.80;99.90
14475;DHT22;7323;50.848;4.334;2024-03-02T10:02:28;10.90;99.90
14475;DHT22;7323;50.848;4.334;2024-03-02T10:04:54;10.80;99.90
14475;DHT22;7323;50.848;4.334;2024-03-02T10:07:19;10.80;99.90
14475;DHT22;7323;50.848;4.334;2024-03-02T10:09:49;10.90;99.90
14475;DHT22;7323;50.848;4.334;2024-03-02T10:12:16;11.10;99.90
14475;DHT22;7323;50.848;4.334;2024-03-02T10:14:42;11.10;99.90
14475;DHT22;7323;50.848;4.334;2024-03-02T10:17:10;11.40;99.90
14475;DHT22;7323;50.848;4.334;2024-03-02T10:19:36;11.50;99.90
14475;DHT22;7323;50.848;4.334;2024-03-02T10:22:07;11.70;99.90
14475;DHT22;7323;50.848;4.334;2024-03-02T10:24:38;11.80;99.90
14475;DHT22;7323;50.848;4.334;2024-03-02T10:27:08;12.00;99.90
14475;DHT22;7323;50.848;4.334;2024-03-02T10:29:37;12.20;99.90
14475;DHT22;7323;50.848;4.334;2024-03-02T10:32:04;12.40;99.90
14475;DHT22;7323;50.848;4.334;2024-03-02T10:34:32;12.50;99.90
14475;DHT22;7323;50.848;4.334;2024-03-02T10:36:59;12.60;99.90
14475;DHT22;7323;50.848;4.334;2024-03-02T10:39:26;12.70;99.90
14475;DHT22;7323;50.848;4.334;2024-03-02T10:41:52;12.70;99.90
14475;DHT22;7323;50.848;4.334;2024-03-02T10:44:19;12.40;99.90
14475;DHT22;7323;50.848;4.334;2024-03-02T10:46:46;12.40;99.90
14475;DHT22;7323;50.848;4.334;2024-03-02T10:49:12;12.60;99.90
14475;DHT22;7323;50.848;4.334;2024-03-02T10:51:38;12.70;99.90
14475;DHT22;7323;50.848;4.334;2024-03-02T10:54:04;12.60;99.90
14475;DHT22;7323;50.848;4.334;2024-03-02T10:56:34;12.40;99.90
14475;DHT22;7323;50.848;4.334;2024-03-02T10:59:24;12.20;99.90
14475;DHT22;7323;50.848;4.334;2024-03-02T11:01:58;12.00;99.90
14475;DHT22;7323;50.848;4.334;2024-03-02T11:04:25;12.10;99.90
14475;DHT22;7323;50.848;4.334;2024-03-02T11:06:56;12.20;99.90
14475;DHT22;7323;50.848;4.334;2024-03-02T11:09:26;12.30;99.90
14475;DHT22;7323;50.848;4.334;2024-03-02T11:12:31;12.40;99.90
14475;DHT22;7323;50.848;4.334;2024-03-02T11:15:00;12.50;99.90
14475;DHT22;7323;50.848;4.334;2024-03-02T11:17:26;12.70;99.90
14475;DHT22;7323;50.848;4.334;2024-03-02T11:19:53;12.60;99.90
14475;DHT22;7323;50.848;4.334;2024-03-02T11:22:19;12.50;99.90
14475;DHT22;7323;50.848;4.334;2024-03-02T11:24:51;12.50;99.90
14475;DHT22;7323;50.848;4.334;2024-03-02T11:33:05;12.70;99.90
14475;DHT22;7323;50.848;4.334;2024-03-02T11:35:40;12.60;99.90
14475;DHT22;7323;50.848;4.334;2024-03-02T11:38:09;12.70;99.90
14475;DHT22;7323;50.848;4.334;2024-03-02T11:40:35;12.80;99.90
14475;DHT22;7323;50.848;4.334;2024-03-02T11:43:01;12.80;99.90
14475;DHT22;7323;50.848;4.334;2024-03-02T11:45:27;12.90;99.90
14475;DHT22;7323;50.848;4.334;2024-03-02T11:47:59;13.00;99.90
14475;DHT22;7323;50.848;4.334;2024-03-02T11:50:39;12.90;99.90
14475;DHT22;7323;50.848;4.334;2024-03-02T11:53:06;12.90;99.90
14475;DHT22;7323;50.848;4.334;2024-03-02T11:55:35;13.10;99.90
14475;DHT22;7323;50.848;4.334;2024-03-02T11:58:06;13.40;99.90
14475;DHT22;7323;50.848;4.334;2024-03-02T12:00:31;13.50;99.90
14475;DHT22;7323;50.848;4.334;2024-03-02T12:03:02;13.60;99.90
14475;DHT22;7323;50.848;4.334;2024-03-02T12:05:30;13.50;99.90
14475;DHT22;7323;50.848;4.334;2024-03-02T12:07:57;13.30;99.90
14475;DHT22;7323;50.848;4.334;2024-03-02T12:10:23;13.30;99.90
14475;DHT22;7323;50.848;4.334;2024-03-02T12:12:58;13.30;99.90
14475;DHT22;7323;50.848;4.334;2024-03-02T12:15:31;13.20;99.90
14475;DHT22;7323;50.848;4.334;2024-03-02T12:17:58;13.00;99.90
14475;DHT22;7323;50.848;4.334;2024-03-02T12:20:25;13.10;99.90
14475;DHT22;7323;50.848;4.334;2024-03-02T12:22:55;13.30;99.90
14475;DHT22;7323;50.848;4.334;2024-03-02T12:25:22;13.40;99.90
14475;DHT22;7323;50.848;4.334;2024-03-02T12:27:55;13.60;99.90
14475;DHT22;7323;50.848;4.334;2024-03-02T12:30:21;13.50;99.90
14475;DHT22;7323;50.848;4.334;2024-03-02T12:32:48;13.70;99.90
14475;DHT22;7323;50.848;4.334;2024-03-02T12:35:14;13.70;99.90
14475;DHT22;7323;50.848;4.334;2024-03-02T12:37:51;13.90;99.90
14475;DHT22;7323;50.848;4.334;2024-03-02T12:40:18;13.90;99.90
14475;DHT22;7323;50.848;4.334;2024-03-02T12:42:45;13.90;99.90
14475;DHT22;7323;50.848;4.334;2024-03-02T12:45:12;14.00;99.90
14475;DHT22;7323;50.848;4.334;2024-03-02T12:47:39;14.00;99.90
14475;DHT22;7323;50.848;4.334;2024-03-02T12:50:06;14.00;99.90
14475;DHT22;7323;50.848;4.334;2024-03-02T12:52:32;13.80;99.90
14475;DHT22;7323;50.848;4.334;2024-03-02T12:54:59;13.80;99.90
14475;DHT22;7323;50.848;4.334;2024-03-02T12:57:28;13.90;99.90
14475;DHT22;7323;50.848;4.334;2024-03-02T13:00:12;13.90;99.90
14475;DHT22;7323;50.848;4.334;2024-03-02T13:02:42;14.10;99.90
14475;DHT22;7323;50.848;4.334;2024-03-02T13:05:08;14.10;99.90
14475;DHT22;7323;50.848;4.334;2024-03-02T13:07:37;14.10;99.90
14475;DHT22;7323;50.848;4.334;2024-03-02T13:10:04;14.00;99.90
14475;DHT22;7323;50.848;4.334;2024-03-02T13:12:30;14.00;99.90
14475;DHT22;7323;50.848;4.334;2024-03-02T13:14:58;13.90;99.90
14475;DHT22;7323;50.848;4.334;2024-03-02T13:17:24;13.70;99.90
14475;DHT22;7323;50.848;4.334;2024-03-02T13:22:19;13.40;99.90
14475;DHT22;7323;50.848;4.334;2024-03-02T13:24:45;13.50;99.90
14475;DHT22;7323;50.848;4.334;2024-03-02T13:27:10;13.60;99.90
14475;DHT22;7323;50.848;4.334;2024-03-02T13:29:36;13.70;99.90
14475;DHT22;7323;50.848;4.334;2024-03-02T13:32:03;13.80;99.90
14475;DHT22;7323;50.848;4.334;2024-03-02T13:34:29;13.70;99.90
14475;DHT22;7323;50.848;4.334;2024-03-02T13:36:54;13.70;99.90
14475;DHT22;7323;50.848;4.334;2024-03-02T13:39:20;13.70;99.90
14475;DHT22;7323;50.848;4.334;2024-03-02T13:41:46;13.90;99.90
14475;DHT22;7323;50.848;4.334;2024-03-02T13:44:18;13.90;99.90
14475;DHT22;7323;50.848;4.334;2024-03-02T13:46:44;14.10;99.90
14475;DHT22;7323;50.848;4.334;2024-03-02T13:49:11;14.10;99.90
14475;DHT22;7323;50.848;4.334;2024-03-02T13:51:37;14.10;99.90
14475;DHT22;7323;50.848;4.334;2024-03-02T13:54:03;14.20;99.90
14475;DHT22;7323;50.848;4.334;2024-03-02T13:56:29;14.30;99.90
14475;DHT22;7323;50.848;4.334;2024-03-02T13:58:55;14.30;99.90
14475;DHT22;7323;50.848;4.334;2024-03-02T14:01:21;14.40;99.90
14475;DHT22;7323;50.848;4.334;2024-03-02T14:03:47;14.30;99.90
14475;DHT22;7323;50.848;4.334;2024-03-02T14:06:13;14.20;99.90
14475;DHT22;7323;50.848;4.334;2024-03-02T14:08:39;14.30;99.90
14475;DHT22;7323;50.848;4.334;2024-03-02T14:11:04;14.20;99.90
14475;DHT22;7323;50.848;4.334;2024-03-02T14:13:30;14.20;99.90
14475;DHT22;7323;50.848;4.334;2024-03-02T14:15:56;14.10;99.90
14475;DHT22;7323;50.848;4.334;2024-03-02T14:18:23;14.10;99.90
14475;DHT22;7323;50.848;4.334;2024-03-02T14:20:49;14.00;99.90
14475;DHT22;7323;50.848;4.334;2024-03-02T14:23:18;14.10;99.90
14475;DHT22;7323;50.848;4.334;2024-03-02T14:25:45;14.00;99.90
14475;DHT22;7323;50.848;4.334;2024-03-02T14:28:11;13.80;1.00
14475;DHT22;7323;50.848;4.334;2024-03-02T14:30:37;13.70;1.00
14475;DHT22;7323;50.848;4.334;2024-03-02T14:33:04;13.60;1.00
14475;DHT22;7323;50.848;4.334;2024-03-02T14:35:30;13.60;1.00
14475;DHT22;7323;50.848;4.334;2024-03-02T14:37:56;13.60;1.00
14475;DHT22;7323;50.848;4.334;2024-03-02T14:40:23;13.50;1.00
14475;DHT22;7323;50.848;4.334;2024-03-02T14:42:52;13.60;1.00
14475;DHT22;7323;50.848;4.334;2024-03-02T14:45:18;13.50;1.00
14475;DHT22;7323;50.848;4.334;2024-03-02T14:47:43;13.50;1.00
14475;DHT22;7323;50.848;4.334;2024-03-02T14:50:09;13.60;1.00
14475;DHT22;7323;50.848;4.334;2024-03-02T14:52:35;13.50;1.00
14475;DHT22;7323;50.848;4.334;2024-03-02T14:55:01;13.60;1.00
14475;DHT22;7323;50.848;4.334;2024-03-02T14:57:29;13.60;1.00
14475;DHT22;7323;50.848;4.334;2024-03-02T14:59:55;13.60;1.00
14475;DHT22;7323;50.848;4.334;2024-03-02T15:02:21;13.40;1.00
14475;DHT22;7323;50.848;4.334;2024-03-02T15:04:47;13.30;1.00
14475;DHT22;7323;50.848;4.334;2024-03-02T15:07:13;13.30;1.00
14475;DHT22;7323;50.848;4.334;2024-03-02T15:09:39;13.40;1.00
14475;DHT22;7323;50.848;4.334;2024-03-02T15:12:06;13.40;1.00
14475;DHT22;7323;50.848;4.334;2024-03-02T15:14:34;13.20;1.00
14475;DHT22;7323;50.848;4.334;2024-03-02T15:17:00;13.30;1.00
14475;DHT22;7323;50.848;4.334;2024-03-02T15:19:26;13.20;1.00
14475;DHT22;7323;50.848;4.334;2024-03-02T15:21:51;13.30;1.00
14475;DHT22;7323;50.848;4.334;2024-03-02T15:24:17;13.20;1.00
14475;DHT22;7323;50.848;4.334;2024-03-02T15:26:43;13.20;1.00
14475;DHT22;7323;50.848;4.334;2024-03-02T15:29:09;13.20;1.00
14475;DHT22;7323;50.848;4.334;2024-03-02T15:31:35;13.20;1.00
14475;DHT22;7323;50.848;4.334;2024-03-02T15:34:01;13.20;1.00
14475;DHT22;7323;50.848;4.334;2024-03-02T15:36:27;13.30;1.00
14475;DHT22;7323;50.848;4.334;2024-03-02T15:38:52;13.30;1.00
14475;DHT22;7323;50.848;4.334;2024-03-02T15:41:18;13.30;1.00
14475;DHT22;7323;50.848;4.334;2024-03-02T15:43:43;13.50;1.00
14475;DHT22;7323;50.848;4.334;2024-03-02T15:46:09;13.60;1.00
14475;DHT22;7323;50.848;4.334;2024-03-02T15:48:35;13.70;1.00
14475;DHT22;7323;50.848;4.334;2024-03-02T15:51:02;13.70;1.00
14475;DHT22;7323;50.848;4.334;2024-03-02T15:53:30;13.70;1.00
14475;DHT22;7323;50.848;4.334;2024-03-02T15:55:55;13.70;1.00
14475;DHT22;7323;50.848;4.334;2024-03-02T15:58:21;13.70;1.00
14475;DHT22;7323;50.848;4.334;2024-03-02T16:00:47;13.70;1.00
14475;DHT22;7323;50.848;4.334;2024-03-02T16:03:12;13.60;1.00
14475;DHT22;7323;50.848;4.334;2024-03-02T16:05:38;13.60;1.00
14475;DHT22;7323;50.848;4.334;2024-03-02T16:08:04;13.40;1.00